Time;durP1;ratioP1;P1;durP2;ratioP2;P2;SDS_P1;SDS_P2;PMS_P1;PMS_P2;Temp;Humidity;BMP_temperature;BMP_pressure;BME280_temperature;BME280_humidity;BME280_pressure;Samples;Min_cycle;Max_cycle;Signal;HPM_P1;HPM_P2
2024/01/24 05:29:24;;;;;;;1.63;0.60;;;13.60;99.90;;;;;;6062719;22;21402;-69
2024/01/24 05:31:50;;;;;;;2.25;0.90;;;13.50;99.90;;;;;;4981942;28;20438;-72
2024/01/24 05:34:18;;;;;;;1.50;0.50;;;13.30;99.90;;;;;;4978856;28;20906;-70
2024/01/24 05:36:44;;;;;;;1.40;0.60;;;12.90;99.90;;;;;;4978326;28;20435;-70
2024/01/24 05:39:11;;;;;;;1.50;0.70;;;12.50;99.90;;;;;;4978319;28;20435;-70
2024/01/24 05:41:38;;;;;;;1.30;0.70;;;12.30;99.90;;;;;;4992425;28;20414;-67
2024/01/24 05:44:05;;;;;;;2.33;0.70;;;12.10;99.90;;;;;;4991305;28;20414;-68
2024/01/24 05:46:33;;;;;;;1.50;0.70;;;12.00;99.90;;;;;;4992621;28;20457;-68
2024/01/24 05:49:00;;;;;;;1.70;0.60;;;11.90;99.90;;;;;;4991952;28;20426;-67
2024/01/24 05:51:27;;;;;;;2.30;0.55;;;12.00;99.90;;;;;;4989750;28;20446;-68
2024/01/24 05:53:54;;;;;;;2.83;0.70;;;12.00;99.90;;;;;;4992876;28;20461;-66
2024/01/24 05:56:20;;;;;;;1.67;0.77;;;12.00;99.90;;;;;;4995357;28;20429;-68
2024/01/24 05:58:47;;;;;;;2.78;0.80;;;12.10;99.90;;;;;;4987936;28;20419;-68
2024/01/24 06:01:14;;;;;;;3.13;0.95;;;12.20;99.90;;;;;;4978398;28;20414;-68
2024/01/24 06:03:42;;;;;;;4.25;1.30;;;12.30;99.90;;;;;;4994974;28;20409;-68
2024/01/24 06:06:09;;;;;;;2.25;0.90;;;12.30;99.90;;;;;;4979010;28;20849;-68
2024/01/24 06:08:36;;;;;;;2.67;0.90;;;12.30;99.90;;;;;;4992832;28;20420;-67
2024/01/24 06:11:04;;;;;;;5.22;1.30;;;12.30;99.90;;;;;;4989903;28;20542;-68
2024/01/24 06:13:31;;;;;;;4.28;1.42;;;12.40;99.90;;;;;;4980483;28;20442;-67
2024/01/24 06:15:58;;;;;;;3.60;0.90;;;12.40;99.90;;;;;;4992141;28;20561;-67
2024/01/24 06:18:24;;;;;;;4.10;1.45;;;12.40;99.90;;;;;;4990312;28;20433;-67
2024/01/24 06:20:52;;;;;;;3.25;1.10;;;12.30;99.90;;;;;;4994140;28;20783;-67
2024/01/24 06:23:19;;;;;;;4.47;1.30;;;12.40;99.90;;;;;;4994888;28;20929;-68
2024/01/24 06:25:46;;;;;;;3.33;1.23;;;12.40;99.90;;;;;;4983345;28;20518;-68
2024/01/24 06:28:13;;;;;;;4.78;1.58;;;12.40;99.90;;;;;;4991692;28;20444;-65
2024/01/24 06:30:40;;;;;;;3.73;1.40;;;12.50;99.90;;;;;;4987538;28;20525;-65
2024/01/24 06:33:06;;;;;;;6.47;1.60;;;12.50;99.90;;;;;;4993391;28;20438;-65
2024/01/24 06:35:33;;;;;;;4.60;1.43;;;12.60;99.90;;;;;;4987453;28;20422;-65
2024/01/24 06:38:02;;;;;;;6.40;1.97;;;12.60;99.90;;;;;;4989147;28;20426;-66
2024/01/24 06:40:29;;;;;;;6.90;2.50;;;12.70;99.90;;;;;;4992099;28;20431;-65
2024/01/24 06:42:56;;;;;;;8.73;2.30;;;12.70;99.90;;;;;;4996703;28;20513;-67
2024/01/24 06:45:23;;;;;;;8.80;2.00;;;12.60;99.90;;;;;;4990122;28;20428;-66
2024/01/24 06:47:50;;;;;;;6.20;2.27;;;12.60;99.90;;;;;;4987786;28;20426;-67
2024/01/24 06:50:17;;;;;;;6.07;2.25;;;12.60;99.90;;;;;;4997866;28;20572;-66
2024/01/24 06:52:44;;;;;;;10.13;3.30;;;12.50;99.90;;;;;;4990658;28;20426;-67
2024/01/24 06:55:15;;;;;;;11.50;2.70;;;12.50;99.90;;;;;;4983221;28;20433;-67
2024/01/24 06:57:41;;;;;;;12.55;3.80;;;12.40;99.90;;;;;;4987201;28;20426;-64
2024/01/24 07:00:09;;;;;;;9.80;2.50;;;12.40;99.90;;;;;;4987763;28;20780;-67
2024/01/24 07:02:37;;;;;;;10.48;3.92;;;12.30;99.90;;;;;;4991440;28;20414;-66
2024/01/24 07:05:05;;;;;;;8.63;3.00;;;12.30;99.90;;;;;;4988224;28;21131;-66
2024/01/24 07:07:32;;;;;;;9.68;2.72;;;12.20;99.90;;;;;;4992555;28;20434;-66
2024/01/24 07:09:58;;;;;;;7.30;3.00;;;12.20;99.90;;;;;;4991142;28;20433;-67
2024/01/24 07:12:26;;;;;;;12.00;3.20;;;12.10;99.90;;;;;;4980706;28;20881;-65
2024/01/24 07:14:53;;;;;;;11.07;3.17;;;12.10;99.90;;;;;;4990190;28;20430;-67
2024/01/24 07:17:20;;;;;;;9.43;3.20;;;12.10;99.90;;;;;;4994282;28;20422;-67
2024/01/24 07:19:48;;;;;;;10.77;3.00;;;12.10;99.90;;;;;;4987057;28;20437;-67
2024/01/24 07:22:15;;;;;;;8.52;3.13;;;12.10;99.90;;;;;;4995564;28;20421;-67
2024/01/24 07:24:44;;;;;;;13.43;3.80;;;12.10;99.90;;;;;;4994193;28;20937;-67
2024/01/24 07:27:11;;;;;;;11.50;3.60;;;12.00;99.90;;;;;;4992127;28;20484;-67
2024/01/24 07:29:39;;;;;;;12.85;4.05;;;12.10;99.90;;;;;;4993740;28;20471;-68
2024/01/24 07:32:06;;;;;;;12.10;3.80;;;12.00;99.90;;;;;;4991365;28;20433;-67
2024/01/24 07:34:33;;;;;;;10.68;3.30;;;12.00;99.90;;;;;;4992904;28;20745;-69
2024/01/24 07:36:59;;;;;;;11.25;3.42;;;12.00;99.90;;;;;;4995612;28;20843;-65
2024/01/24 07:39:28;;;;;;;9.48;3.50;;;12.00;99.90;;;;;;5000583;28;20425;-67
2024/01/24 07:41:55;;;;;;;11.55;3.40;;;11.90;99.90;;;;;;5025048;23;20445;-74
2024/01/24 07:44:22;;;;;;;11.15;3.70;;;11.90;99.90;;;;;;5012630;28;20417;-75
2024/01/24 07:46:50;;;;;;;12.40;4.25;;;12.00;99.90;;;;;;5016037;28;20424;-74
2024/01/24 07:49:17;;;;;;;13.48;3.50;;;12.00;99.90;;;;;;5010214;28;20431;-75
2024/01/24 07:51:46;;;;;;;12.68;3.70;;;12.10;99.90;;;;;;5009645;28;20720;-73
2024/01/24 07:54:13;;;;;;;16.00;4.87;;;12.10;99.90;;;;;;5008894;28;20527;-74
2024/01/24 07:56:40;;;;;;;11.00;3.80;;;12.10;99.90;;;;;;5009829;28;20420;-75
2024/01/24 07:59:08;;;;;;;11.82;3.60;;;12.10;99.90;;;;;;5008482;28;20767;-74
2024/01/24 08:01:34;;;;;;;14.15;4.10;;;12.10;99.90;;;;;;5008857;28;20423;-75
2024/01/24 08:04:03;;;;;;;13.95;4.15;;;12.10;99.90;;;;;;5016629;28;20409;-73
2024/01/24 08:06:29;;;;;;;14.02;3.70;;;12.10;99.90;;;;;;5007892;28;20424;-73
2024/01/24 08:08:56;;;;;;;15.10;4.40;;;12.10;99.90;;;;;;5007612;28;20413;-75
2024/01/24 08:11:24;;;;;;;12.20;3.80;;;12.10;99.90;;;;;;5008117;28;20822;-75
2024/01/24 08:13:51;;;;;;;16.05;4.00;;;12.10;99.90;;;;;;5004868;28;20443;-76
2024/01/24 08:16:18;;;;;;;14.35;3.95;;;12.10;99.90;;;;;;5008586;28;20416;-74
2024/01/24 08:18:45;;;;;;;10.52;4.32;;;12.10;99.90;;;;;;5011751;28;20413;-74
2024/01/24 08:21:13;;;;;;;13.27;4.50;;;12.10;99.90;;;;;;5008714;28;20428;-73
2024/01/24 08:23:40;;;;;;;13.32;3.90;;;12.10;99.90;;;;;;5008511;28;20416;-75
2024/01/24 08:26:08;;;;;;;13.57;3.92;;;12.10;99.90;;;;;;5013018;28;20420;-74
2024/01/24 08:28:35;;;;;;;16.30;4.80;;;12.10;99.90;;;;;;5008186;28;20790;-73
2024/01/24 08:31:01;;;;;;;15.63;4.10;;;12.10;99.90;;;;;;5007645;28;20423;-74
2024/01/24 08:33:28;;;;;;;16.73;4.72;;;12.10;99.90;;;;;;5008388;28;20899;-74
2024/01/24 08:35:55;;;;;;;15.32;4.35;;;12.10;99.90;;;;;;5008002;28;20417;-74
2024/01/24 08:38:23;;;;;;;16.60;4.90;;;12.00;99.90;;;;;;5013715;28;20440;-75
2024/01/24 08:40:50;;;;;;;14.95;4.43;;;12.00;99.90;;;;;;5006987;28;20810;-74
2024/01/24 08:43:17;;;;;;;13.63;4.40;;;12.00;99.90;;;;;;5008929;28;20420;-74
2024/01/24 08:45:44;;;;;;;16.55;4.68;;;12.00;99.90;;;;;;5012485;28;20443;-75
2024/01/24 08:48:10;;;;;;;12.43;4.30;;;12.00;99.90;;;;;;5012244;28;20999;-74
2024/01/24 08:50:37;;;;;;;12.23;3.70;;;12.00;99.90;;;;;;5011998;28;20432;-76
2024/01/24 08:53:04;;;;;;;14.82;4.70;;;12.00;99.90;;;;;;5012324;28;20417;-75
2024/01/24 08:55:32;;;;;;;15.40;5.30;;;12.00;99.90;;;;;;5011922;28;20436;-75
2024/01/24 08:57:59;;;;;;;16.02;5.80;;;12.00;99.90;;;;;;5015617;28;20790;-75
2024/01/24 09:00:26;;;;;;;13.73;4.50;;;12.00;99.90;;;;;;5012384;28;20992;-76
2024/01/24 09:02:54;;;;;;;16.20;5.00;;;12.00;99.90;;;;;;5015237;28;20497;-75
2024/01/24 09:05:21;;;;;;;13.70;4.30;;;11.90;99.90;;;;;;5016054;28;20744;-74
2024/01/24 09:07:48;;;;;;;14.38;5.18;;;11.90;99.90;;;;;;5017109;28;20424;-75
2024/01/24 09:10:14;;;;;;;20.05;4.93;;;11.90;99.90;;;;;;5011890;28;20694;-74
2024/01/24 09:12:42;;;;;;;13.63;4.32;;;11.90;99.90;;;;;;5011975;28;20417;-74
2024/01/24 09:15:10;;;;;;;19.85;4.93;;;11.90;99.90;;;;;;5016196;28;20435;-74
2024/01/24 09:17:36;;;;;;;15.60;4.63;;;11.90;99.90;;;;;;5011892;28;20428;-75
2024/01/24 09:20:06;;;;;;;15.57;4.68;;;11.90;99.90;;;;;;5011742;28;20506;-74
2024/01/24 09:22:32;;;;;;;16.00;4.32;;;11.90;99.90;;;;;;5015215;28;20423;-75
2024/01/24 09:24:59;;;;;;;17.88;5.00;;;11.90;99.90;;;;;;5011468;28;20412;-74
2024/01/24 09:27:26;;;;;;;16.25;4.68;;;11.90;99.90;;;;;;5017895;28;20419;-75
2024/01/24 09:29:54;;;;;;;17.88;4.97;;;11.90;99.90;;;;;;5027746;28;20413;-74
2024/01/24 09:32:21;;;;;;;15.23;5.60;;;11.90;99.90;;;;;;5009982;28;20428;-74
2024/01/24 09:34:48;;;;;;;13.50;4.70;;;11.80;99.90;;;;;;5011669;28;20502;-75
2024/01/24 09:37:15;;;;;;;15.35;4.90;;;11.80;99.90;;;;;;5011609;28;20895;-76
2024/01/24 09:39:41;;;;;;;17.10;5.30;;;11.90;99.90;;;;;;5011709;28;20413;-74
2024/01/24 09:42:17;;;;;;;17.10;5.13;;;11.90;99.90;;;;;;5011352;28;20436;-75
2024/01/24 09:44:47;;;;;;;15.38;4.80;;;11.90;99.90;;;;;;5011751;28;20921;-75
2024/01/24 09:47:16;;;;;;;15.05;5.00;;;11.90;99.90;;;;;;5016935;28;20511;-75
2024/01/24 09:49:44;;;;;;;20.15;6.63;;;11.90;99.90;;;;;;5011351;28;20752;-74
2024/01/24 09:52:13;;;;;;;18.30;5.43;;;11.90;99.90;;;;;;5011281;28;20421;-75
2024/01/24 09:54:40;;;;;;;17.63;5.45;;;12.00;99.90;;;;;;5014510;28;20432;-73
2024/01/24 09:57:07;;;;;;;15.80;4.88;;;12.10;99.90;;;;;;5003933;28;20440;-74
2024/01/24 09:59:34;;;;;;;16.15;5.32;;;12.10;99.90;;;;;;5011147;28;20424;-76
2024/01/24 10:02:01;;;;;;;17.23;5.00;;;12.10;99.90;;;;;;5011173;28;20425;-76
2024/01/24 10:04:36;;;;;;;15.77;5.20;;;12.10;99.90;;;;;;5020735;28;20500;-74
2024/01/24 10:07:03;;;;;;;16.25;5.38;;;12.10;99.90;;;;;;5009966;28;20478;-75
2024/01/24 10:09:30;;;;;;;21.05;5.30;;;12.20;99.90;;;;;;5014821;28;20407;-74
2024/01/24 10:11:57;;;;;;;15.30;4.97;;;12.20;99.90;;;;;;5017442;28;20443;-75
2024/01/24 10:14:24;;;;;;;15.00;5.50;;;12.20;99.90;;;;;;5010457;28;20433;-76
2024/01/24 10:16:51;;;;;;;14.20;5.03;;;12.20;99.90;;;;;;5010929;28;20420;-76
2024/01/24 10:19:22;;;;;;;13.68;5.07;;;12.20;99.90;;;;;;5010854;28;20416;-74
2024/01/24 10:21:50;;;;;;;20.88;5.80;;;12.20;99.90;;;;;;5013073;28;20582;-74
2024/01/24 10:24:17;;;;;;;16.60;5.38;;;12.20;99.90;;;;;;5016293;28;20407;-74
2024/01/24 10:26:45;;;;;;;16.52;5.53;;;12.20;99.20;;;;;;5012230;28;20502;-75
2024/01/24 10:29:12;;;;;;;15.50;5.13;;;12.20;99.80;;;;;;5015968;28;20495;-75
2024/01/24 10:31:39;;;;;;;14.17;4.67;;;12.20;99.20;;;;;;5010612;28;20417;-75
2024/01/24 10:34:06;;;;;;;14.43;4.50;;;12.30;99.00;;;;;;5011672;28;20424;-74
2024/01/24 10:36:33;;;;;;;14.98;5.40;;;12.30;98.80;;;;;;5010772;28;20851;-75
2024/01/24 10:39:03;;;;;;;17.60;5.80;;;12.30;98.90;;;;;;5018161;28;20417;-75
2024/01/24 10:41:31;;;;;;;20.33;5.55;;;12.30;98.80;;;;;;5010858;28;20425;-74
2024/01/24 10:44:03;;;;;;;17.92;5.72;;;12.30;98.80;;;;;;5010490;28;20416;-76
2024/01/24 10:46:31;;;;;;;16.53;5.80;;;12.30;99.20;;;;;;5012315;28;20424;-75
2024/01/24 10:48:59;;;;;;;17.33;5.53;;;12.30;99.50;;;;;;5011340;28;20416;-74
2024/01/24 10:51:27;;;;;;;16.25;5.10;;;12.30;99.50;;;;;;5013782;28;20424;-77
2024/01/24 10:53:54;;;;;;;16.33;5.22;;;12.40;98.50;;;;;;5013336;28;20416;-73
2024/01/24 10:56:25;;;;;;;18.08;5.63;;;12.40;98.90;;;;;;5015899;28;20432;-75
2024/01/24 10:58:52;;;;;;;18.85;6.35;;;12.30;99.10;;;;;;5015136;28;20441;-74
2024/01/24 11:01:19;;;;;;;16.73;5.07;;;12.20;99.70;;;;;;5014022;28;20451;-74
2024/01/24 11:03:48;;;;;;;22.23;5.80;;;12.10;99.80;;;;;;5019574;28;20421;-75
2024/01/24 11:06:17;;;;;;;17.25;5.25;;;12.20;99.90;;;;;;5013794;28;20892;-74
2024/01/24 11:08:49;;;;;;;21.27;6.20;;;12.20;99.40;;;;;;5012080;28;20417;-74
2024/01/24 11:11:19;;;;;;;17.17;5.60;;;12.30;99.50;;;;;;5010168;28;20416;-76
2024/01/24 11:13:47;;;;;;;20.10;5.53;;;12.30;99.00;;;;;;5011908;28;20412;-76
2024/01/24 11:16:31;;;;;;;14.20;4.90;;;12.30;98.00;;;;;;5014719;28;20455;-76
2024/01/24 11:19:19;;;;;;;18.98;5.70;;;12.40;97.50;;;;;;5005889;28;20417;-73
2024/01/24 11:21:46;;;;;;;18.25;5.97;;;12.40;98.20;;;;;;5010639;28;20794;-76
2024/01/24 11:24:13;;;;;;;13.90;5.55;;;12.50;97.80;;;;;;5020864;28;20415;-73
2024/01/24 11:26:49;;;;;;;16.27;5.40;;;12.40;97.80;;;;;;5013676;28;20420;-74
2024/01/24 11:29:17;;;;;;;15.32;5.28;;;12.40;97.40;;;;;;5006788;28;20415;-73
2024/01/24 11:31:45;;;;;;;15.43;5.07;;;12.30;97.50;;;;;;5009772;28;20424;-74
2024/01/24 11:34:12;;;;;;;16.95;5.30;;;12.30;98.00;;;;;;5009876;28;20425;-74
2024/01/24 11:36:47;;;;;;;14.75;5.80;;;12.30;97.60;;;;;;5009758;28;20419;-73
2024/01/24 11:39:35;;;;;;;16.07;4.67;;;12.30;98.20;;;;;;5009616;28;20432;-74
2024/01/24 11:42:42;;;;;;;19.90;6.00;;;12.40;97.80;;;;;;5004622;28;20484;-74
2024/01/24 11:45:18;;;;;;;18.03;5.10;;;12.40;97.90;;;;;;5009411;28;20830;-74
2024/01/24 11:47:45;;;;;;;15.73;5.28;;;12.40;97.80;;;;;;5011453;28;20463;-74
2024/01/24 11:50:12;;;;;;;17.33;5.20;;;12.50;97.70;;;;;;5014828;28;20793;-74
2024/01/24 11:52:39;;;;;;;19.45;6.10;;;12.50;96.60;;;;;;5014597;28;20413;-74
2024/01/24 11:55:06;;;;;;;19.70;5.38;;;12.50;97.10;;;;;;5009451;28;20436;-74
2024/01/24 11:57:33;;;;;;;15.35;5.63;;;12.60;97.20;;;;;;5010199;28;20421;-73
2024/01/24 12:00:00;;;;;;;17.48;5.65;;;12.60;96.50;;;;;;5009135;28;20417;-74
2024/01/24 12:02:29;;;;;;;14.98;5.07;;;12.60;97.10;;;;;;5009432;28;20422;-74
2024/01/24 12:04:55;;;;;;;12.65;5.20;;;12.80;96.60;;;;;;5017085;28;20408;-75
2024/01/24 12:07:22;;;;;;;16.48;5.00;;;12.90;95.50;;;;;;5009484;28;20733;-75
2024/01/24 12:09:50;;;;;;;15.93;5.25;;;13.20;93.60;;;;;;5009706;28;20451;-75
2024/01/24 12:12:17;;;;;;;15.40;5.20;;;13.30;93.40;;;;;;5015709;28;20455;-74
2024/01/24 12:14:45;;;;;;;14.55;4.90;;;13.50;92.30;;;;;;5009108;28;20675;-76
2024/01/24 12:17:11;;;;;;;15.93;4.63;;;13.60;91.20;;;;;;5017356;28;20560;-75
2024/01/24 12:19:43;;;;;;;18.98;6.20;;;13.90;90.20;;;;;;5017649;28;20430;-74
2024/01/24 12:22:10;;;;;;;15.93;5.00;;;13.80;85.70;;;;;;5009189;28;20413;-76
2024/01/24 12:24:38;;;;;;;14.57;5.15;;;13.90;89.00;;;;;;5009312;28;20428;-75
2024/01/24 12:27:06;;;;;;;13.65;4.70;;;14.10;88.60;;;;;;5011695;28;20421;-74
2024/01/24 12:29:33;;;;;;;16.50;4.67;;;14.00;86.10;;;;;;5012703;28;20413;-74
2024/01/24 12:32:00;;;;;;;14.68;4.70;;;13.90;84.00;;;;;;5009218;28;20898;-74
2024/01/24 12:34:29;;;;;;;20.13;6.10;;;13.60;88.90;;;;;;5010915;28;20417;-76
2024/01/24 12:37:00;;;;;;;15.43;4.90;;;13.70;86.60;;;;;;5009258;28;20444;-74
2024/01/24 12:39:27;;;;;;;14.60;4.53;;;13.60;86.70;;;;;;5011980;28;20524;-73
2024/01/24 12:41:54;;;;;;;13.18;4.45;;;13.40;84.50;;;;;;5014037;28;20423;-75
2024/01/24 12:44:21;;;;;;;15.50;5.32;;;13.40;86.50;;;;;;5010349;28;20416;-75
2024/01/24 12:46:55;;;;;;;16.58;5.25;;;13.50;85.70;;;;;;5011165;28;20411;-74
2024/01/24 12:49:22;;;;;;;13.75;4.40;;;13.60;84.60;;;;;;5009259;28;20894;-76
2024/01/24 12:51:49;;;;;;;15.45;5.20;;;13.50;82.80;;;;;;5012272;28;20434;-76
2024/01/24 12:54:17;;;;;;;15.00;4.80;;;13.20;84.20;;;;;;5014918;28;20420;-76
2024/01/24 12:56:47;;;;;;;13.93;4.53;;;13.00;86.90;;;;;;5013043;28;20797;-74
2024/01/24 12:59:14;;;;;;;15.03;4.53;;;12.80;86.70;;;;;;5008914;28;20502;-74
2024/01/24 13:01:41;;;;;;;13.90;4.10;;;12.70;87.40;;;;;;5006542;28;20644;-75
2024/01/24 13:04:07;;;;;;;12.88;4.60;;;12.70;89.70;;;;;;5008420;28;20798;-75
2024/01/24 13:06:35;;;;;;;12.63;4.80;;;12.60;91.00;;;;;;5008878;28;20424;-75
2024/01/24 13:09:03;;;;;;;13.75;4.75;;;12.50;90.70;;;;;;5008767;28;20424;-75
2024/01/24 13:11:31;;;;;;;16.02;4.43;;;12.40;91.70;;;;;;5008558;28;20432;-77
2024/01/24 13:13:58;;;;;;;17.45;5.50;;;12.40;93.10;;;;;;5004505;28;20420;-75
2024/01/24 13:16:25;;;;;;;15.32;4.57;;;12.30;93.70;;;;;;5013234;28;20433;-75
2024/01/24 13:18:52;;;;;;;12.80;4.43;;;12.30;93.50;;;;;;5010569;28;20432;-74
2024/01/24 13:21:19;;;;;;;17.50;5.28;;;12.30;93.80;;;;;;5014116;28;20424;-75
2024/01/24 13:23:45;;;;;;;18.90;5.45;;;12.30;93.80;;;;;;5015171;28;20417;-74
2024/01/24 13:26:12;;;;;;;15.93;4.90;;;12.30;94.20;;;;;;5014585;28;20413;-75
2024/01/24 13:28:40;;;;;;;14.40;5.10;;;12.30;94.80;;;;;;5010489;28;20424;-76
2024/01/24 13:31:07;;;;;;;17.13;5.10;;;12.20;94.60;;;;;;5012601;28;20437;-76
2024/01/24 13:33:34;;;;;;;16.05;4.90;;;12.30;94.60;;;;;;5020695;28;20413;-76
2024/01/24 13:36:01;;;;;;;18.10;5.40;;;12.30;95.00;;;;;;5012489;28;20895;-75
2024/01/24 13:38:31;;;;;;;15.32;4.97;;;12.30;94.50;;;;;;5012031;28;20691;-74
2024/01/24 13:40:58;;;;;;;15.57;4.97;;;12.30;94.00;;;;;;5011986;28;20425;-74
2024/01/24 13:43:25;;;;;;;15.88;5.20;;;12.30;93.40;;;;;;5015207;28;20506;-75
2024/01/24 13:45:53;;;;;;;14.55;4.78;;;12.30;93.80;;;;;;5013004;28;20818;-74
2024/01/24 13:48:20;;;;;;;16.95;5.05;;;12.30;94.30;;;;;;5014794;28;20747;-75
2024/01/24 13:50:46;;;;;;;15.07;5.30;;;12.30;94.20;;;;;;5011548;28;20420;-76
2024/01/24 13:53:13;;;;;;;13.15;4.75;;;12.30;94.50;;;;;;5013183;28;20417;-75
2024/01/24 13:55:40;;;;;;;16.40;5.70;;;12.20;94.20;;;;;;5012873;28;20798;-74
2024/01/24 13:58:06;;;;;;;19.42;6.30;;;12.20;94.30;;;;;;5011819;28;20452;-75
2024/01/24 14:00:33;;;;;;;15.63;4.90;;;12.20;94.70;;;;;;5011715;28;20536;-75
2024/01/24 14:03:01;;;;;;;16.27;4.60;;;12.10;94.60;;;;;;5015247;28;20423;-76
2024/01/24 14:05:28;;;;;;;13.88;5.40;;;12.10;94.70;;;;;;5011671;28;20767;-75
2024/01/24 14:07:55;;;;;;;15.00;4.80;;;12.00;95.20;;;;;;5010958;28;20413;-76
2024/01/24 14:10:22;;;;;;;17.02;5.35;;;12.10;95.80;;;;;;5006658;28;20429;-75
2024/01/24 14:12:48;;;;;;;13.20;4.30;;;12.10;95.00;;;;;;5011372;28;20454;-75
2024/01/24 14:15:16;;;;;;;16.48;6.15;;;12.20;95.00;;;;;;5017141;28;20424;-74
2024/01/24 14:17:43;;;;;;;19.52;5.20;;;12.10;95.10;;;;;;5011355;28;20420;-74
2024/01/24 14:20:12;;;;;;;17.30;5.82;;;12.10;95.10;;;;;;5011500;28;20417;-75
2024/01/24 14:22:38;;;;;;;11.98;4.50;;;12.00;95.50;;;;;;5011116;28;20420;-74
2024/01/24 14:25:06;;;;;;;16.13;5.22;;;12.00;96.20;;;;;;5019134;28;20512;-74
2024/01/24 14:27:32;;;;;;;14.85;5.00;;;12.00;95.90;;;;;;5017056;28;20667;-75
2024/01/24 14:29:59;;;;;;;13.15;4.60;;;12.10;95.70;;;;;;5009157;28;20424;-75
2024/01/24 14:32:26;;;;;;;14.50;4.13;;;12.10;95.00;;;;;;5017248;28;20501;-75
2024/01/24 14:34:53;;;;;;;15.20;5.72;;;12.10;95.00;;;;;;5012346;28;20421;-74
2024/01/24 14:37:24;;;;;;;13.70;4.93;;;12.10;95.50;;;;;;5017570;28;20434;-74
2024/01/24 14:39:51;;;;;;;15.40;4.80;;;12.00;95.20;;;;;;5012043;28;20767;-73
2024/01/24 14:42:18;;;;;;;13.82;4.85;;;12.10;95.10;;;;;;5015714;28;20420;-75
2024/01/24 14:44:44;;;;;;;14.68;4.88;;;12.00;95.30;;;;;;5010261;28;20412;-74
2024/01/24 14:47:11;;;;;;;17.97;5.20;;;12.00;95.40;;;;;;5013188;28;20408;-76
2024/01/24 14:49:38;;;;;;;15.65;5.68;;;11.90;96.00;;;;;;5010808;28;20432;-74
2024/01/24 14:52:05;;;;;;;18.35;5.00;;;11.90;96.10;;;;;;5010735;28;20416;-75
2024/01/24 14:54:35;;;;;;;15.48;5.60;;;11.90;95.60;;;;;;5016190;28;20408;-75
2024/01/24 14:57:02;;;;;;;14.90;4.97;;;11.90;95.40;;;;;;5010862;28;20435;-75
2024/01/24 14:59:29;;;;;;;18.17;4.80;;;11.90;95.20;;;;;;5015987;28;20423;-74
2024/01/24 15:01:56;;;;;;;18.70;5.75;;;11.90;95.50;;;;;;5018871;28;20416;-74
2024/01/24 15:04:23;;;;;;;14.00;5.13;;;11.80;95.60;;;;;;5022104;28;20426;-76
2024/01/24 15:06:49;;;;;;;14.98;4.93;;;11.80;95.90;;;;;;5022464;28;20471;-75
2024/01/24 15:09:19;;;;;;;13.02;4.13;;;11.70;95.80;;;;;;5020846;28;20423;-76
2024/01/24 15:11:47;;;;;;;14.68;5.30;;;11.80;95.90;;;;;;5021594;28;20413;-75
2024/01/24 15:14:14;;;;;;;12.95;4.38;;;11.80;96.00;;;;;;5018402;28;20424;-75
2024/01/24 15:16:40;;;;;;;17.17;5.47;;;11.70;96.60;;;;;;5020332;28;20427;-75
2024/01/24 15:19:08;;;;;;;14.05;4.28;;;11.70;96.80;;;;;;5012496;28;20417;-74
2024/01/24 15:21:35;;;;;;;16.02;4.70;;;11.70;97.10;;;;;;5012064;28;20424;-74
2024/01/24 15:24:05;;;;;;;17.70;4.80;;;11.70;97.40;;;;;;5010622;28;20480;-75
2024/01/24 15:26:32;;;;;;;17.48;5.30;;;11.60;97.50;;;;;;5013498;28;20508;-75
2024/01/24 15:29:00;;;;;;;14.80;4.75;;;11.60;97.60;;;;;;5007463;28;20427;-76
2024/01/24 15:31:27;;;;;;;15.85;4.93;;;11.60;97.50;;;;;;5010225;28;20412;-76
2024/01/24 15:33:54;;;;;;;11.77;4.77;;;11.60;97.50;;;;;;5011762;28;20919;-75
2024/01/24 15:36:20;;;;;;;13.80;4.85;;;11.60;97.80;;;;;;5010255;28;20579;-76
2024/01/24 15:38:50;;;;;;;13.95;4.90;;;11.50;97.70;;;;;;5009334;28;20492;-70
2024/01/24 15:41:17;;;;;;;18.63;5.72;;;11.50;97.70;;;;;;5009461;28;20507;-71
2024/01/24 15:43:44;;;;;;;18.17;6.15;;;11.50;98.10;;;;;;5011927;28;20615;-69
2024/01/24 15:46:12;;;;;;;18.53;5.10;;;11.50;98.20;;;;;;5013825;28;20405;-75
2024/01/24 15:48:40;;;;;;;18.20;5.03;;;11.50;98.30;;;;;;5009126;28;20421;-71
2024/01/24 15:51:07;;;;;;;16.15;4.90;;;11.40;98.40;;;;;;5031232;23;20442;-71
2024/01/24 15:53:34;;;;;;;16.83;5.53;;;11.40;98.60;;;;;;5003571;28;20432;-71
2024/01/24 15:56:01;;;;;;;17.13;5.20;;;11.30;98.80;;;;;;5011910;28;20900;-71
2024/01/24 15:58:28;;;;;;;14.43;5.07;;;11.30;98.80;;;;;;5005941;28;20421;-71
2024/01/24 16:00:55;;;;;;;16.20;4.70;;;11.30;99.10;;;;;;5026018;28;20451;-71
2024/01/24 16:03:25;;;;;;;14.55;4.70;;;11.30;98.50;;;;;;5025360;28;20981;-71
2024/01/24 16:05:52;;;;;;;13.45;4.45;;;11.30;98.80;;;;;;5017824;28;20419;-71
2024/01/24 16:08:19;;;;;;;15.38;5.40;;;11.20;98.90;;;;;;5016006;28;20411;-71
2024/01/24 16:10:46;;;;;;;12.95;4.95;;;11.20;99.30;;;;;;5015650;28;20496;-70
2024/01/24 16:13:13;;;;;;;14.95;5.07;;;11.10;99.20;;;;;;5018261;28;20415;-70
2024/01/24 16:15:40;;;;;;;19.45;5.10;;;11.10;99.40;;;;;;5016916;28;20423;-69
2024/01/24 16:18:07;;;;;;;16.55;5.40;;;11.10;99.50;;;;;;5023389;28;20442;-69
2024/01/24 16:20:35;;;;;;;13.40;4.80;;;11.10;99.50;;;;;;5018247;28;20415;-69
2024/01/24 16:23:02;;;;;;;13.57;4.67;;;11.00;99.50;;;;;;5011235;28;20496;-69
2024/01/24 16:25:29;;;;;;;15.20;5.30;;;11.00;99.80;;;;;;5012907;28;20422;-70
2024/01/24 16:27:56;;;;;;;12.13;4.20;;;10.90;99.90;;;;;;5018774;28;20438;-70
2024/01/24 16:30:24;;;;;;;17.35;5.18;;;10.90;99.90;;;;;;5022151;28;20416;-70
2024/01/24 16:32:53;;;;;;;15.90;5.45;;;10.80;99.90;;;;;;5013121;28;20475;-69
2024/01/24 16:35:20;;;;;;;15.43;5.15;;;10.80;99.90;;;;;;5010120;28;20512;-70
2024/01/24 16:37:48;;;;;;;16.30;4.35;;;10.80;99.90;;;;;;5016571;28;20433;-70
2024/01/24 16:40:15;;;;;;;20.58;5.60;;;10.80;99.90;;;;;;5019865;28;20479;-70
2024/01/24 16:42:42;;;;;;;15.57;5.40;;;10.90;99.80;;;;;;5018371;28;20807;-69
2024/01/24 16:45:11;;;;;;;13.82;4.50;;;10.90;99.90;;;;;;5021998;28;20887;-70
2024/01/24 16:47:37;;;;;;;15.93;4.82;;;10.90;99.90;;;;;;5019025;28;20862;-69
2024/01/24 16:50:05;;;;;;;17.73;4.30;;;10.80;99.90;;;;;;5020548;28;20411;-70
2024/01/24 16:52:32;;;;;;;17.67;4.75;;;10.80;99.90;;;;;;5015160;28;20417;-70
2024/01/24 16:55:00;;;;;;;15.57;4.78;;;10.80;99.90;;;;;;5017203;28;20410;-70
2024/01/24 16:57:27;;;;;;;17.00;5.50;;;10.80;99.90;;;;;;5020916;28;20427;-69
2024/01/24 16:59:53;;;;;;;14.18;4.45;;;10.80;99.90;;;;;;5021160;28;20485;-68
2024/01/24 17:02:20;;;;;;;15.40;5.28;;;10.80;99.90;;;;;;5020825;28;20418;-69
2024/01/24 17:04:47;;;;;;;17.10;4.85;;;10.80;99.90;;;;;;5021066;28;20859;-68
2024/01/24 17:07:14;;;;;;;16.20;5.13;;;10.70;99.90;;;;;;5017369;28;20410;-67
2024/01/24 17:09:41;;;;;;;16.67;5.10;;;10.70;99.90;;;;;;5025438;28;20419;-70
2024/01/24 17:12:09;;;;;;;14.52;5.00;;;10.60;99.90;;;;;;5009255;28;20965;-69
2024/01/24 17:14:37;;;;;;;15.65;5.35;;;10.50;99.90;;;;;;5020238;28;20486;-69
2024/01/24 17:17:04;;;;;;;16.52;5.32;;;10.40;99.90;;;;;;5018850;28;20462;-68
2024/01/24 17:19:31;;;;;;;17.35;6.00;;;10.40;99.90;;;;;;5010040;28;20416;-69
2024/01/24 17:21:58;;;;;;;17.35;5.07;;;10.40;99.90;;;;;;5019164;28;20868;-68
2024/01/24 17:24:25;;;;;;;17.38;6.07;;;10.40;99.90;;;;;;5019273;28;20902;-69
2024/01/24 17:26:52;;;;;;;16.38;4.97;;;10.40;99.90;;;;;;5015192;28;20415;-72
2024/01/24 17:29:20;;;;;;;16.48;5.75;;;10.30;99.90;;;;;;5011569;28;20418;-71
2024/01/24 17:31:47;;;;;;;16.33;5.60;;;10.40;99.90;;;;;;5018930;28;20462;-71
2024/01/24 17:34:14;;;;;;;16.42;5.30;;;10.40;99.90;;;;;;5010633;28;20503;-71
2024/01/24 17:36:41;;;;;;;16.15;5.57;;;10.30;99.90;;;;;;5021297;28;20438;-72
2024/01/24 17:39:08;;;;;;;19.30;6.53;;;10.30;99.90;;;;;;5016433;28;20799;-70
2024/01/24 17:41:35;;;;;;;16.58;5.45;;;10.30;99.90;;;;;;5024528;28;20753;-70
2024/01/24 17:44:02;;;;;;;19.52;7.20;;;10.30;99.90;;;;;;5012885;28;21119;-70
2024/01/24 17:46:30;;;;;;;17.45;6.28;;;10.30;99.90;;;;;;5015298;28;20517;-70
2024/01/24 17:48:57;;;;;;;23.75;6.97;;;10.30;99.90;;;;;;5009819;28;20427;-69
2024/01/24 17:51:23;;;;;;;16.80;6.47;;;10.30;99.90;;;;;;5008587;28;20532;-68
2024/01/24 17:53:50;;;;;;;21.35;6.32;;;10.20;99.90;;;;;;5020858;28;20528;-68
2024/01/24 17:56:17;;;;;;;21.83;6.20;;;10.20;99.90;;;;;;5026406;28;20463;-68
2024/01/24 17:58:44;;;;;;;24.23;6.57;;;10.20;99.90;;;;;;5014730;28;20424;-68
2024/01/24 18:01:11;;;;;;;22.85;6.28;;;10.20;99.90;;;;;;5019467;28;20447;-68
2024/01/24 18:03:39;;;;;;;21.73;6.65;;;10.30;99.90;;;;;;5016188;28;20424;-67
2024/01/24 18:06:06;;;;;;;19.40;6.18;;;10.30;99.90;;;;;;5021538;28;20411;-68
2024/01/24 18:08:33;;;;;;;17.27;6.10;;;10.30;99.90;;;;;;5021939;28;20418;-68